Time;durP1;ratioP1;P1;durP2;ratioP2;P2;SDS_P1;SDS_P2;PMS_P1;PMS_P2;Temp;Humidity;BMP_temperature;BMP_pressure;BME280_temperature;BME280_humidity;BME280_pressure;Samples;Min_cycle;Max_cycle;Signal;HPM_P1;HPM_P2
2023/05/18 00:02:02;;;;;;;2.42;1.10;;;5.00;99.90;;;;;;5094390;28;20114;-65
2023/05/18 00:04:30;;;;;;;2.03;0.70;;;5.00;99.90;;;;;;5094326;28;20047;-65
2023/05/18 00:06:57;;;;;;;1.25;0.80;;;5.00;99.90;;;;;;5094036;28;20395;-64
2023/05/18 00:09:26;;;;;;;2.38;0.60;;;5.00;99.90;;;;;;5112612;28;20058;-65
2023/05/18 00:11:52;;;;;;;1.17;0.55;;;5.00;99.90;;;;;;5093507;28;20046;-64
2023/05/18 00:14:19;;;;;;;1.40;0.60;;;4.90;99.90;;;;;;5094261;28;20560;-65
2023/05/18 00:16:46;;;;;;;1.00;0.68;;;4.90;99.90;;;;;;5112641;28;20040;-65
2023/05/18 00:19:15;;;;;;;1.65;0.88;;;4.90;99.90;;;;;;5076496;28;20043;-65
2023/05/18 00:21:42;;;;;;;3.00;1.17;;;4.80;99.90;;;;;;5077072;28;20119;-64
2023/05/18 00:24:12;;;;;;;3.88;0.63;;;4.80;99.90;;;;;;5094007;28;20498;-64
2023/05/18 00:26:38;;;;;;;1.42;0.80;;;4.70;99.90;;;;;;5111894;28;20101;-65
2023/05/18 00:29:05;;;;;;;1.08;0.68;;;4.70;99.90;;;;;;5077287;28;20039;-64
2023/05/18 00:31:35;;;;;;;0.60;0.60;;;4.70;99.90;;;;;;5112412;28;20040;-64
2023/05/18 00:34:02;;;;;;;0.40;0.40;;;4.60;99.90;;;;;;5111748;28;20096;-64
2023/05/18 00:36:29;;;;;;;0.52;0.50;;;4.60;99.90;;;;;;5094097;28;20071;-65
2023/05/18 00:38:54;;;;;;;2.47;0.73;;;4.60;99.90;;;;;;5112468;28;20050;-65
2023/05/18 00:41:21;;;;;;;1.13;0.55;;;4.60;99.90;;;;;;5111699;28;20039;-64
2023/05/18 00:43:47;;;;;;;1.67;0.47;;;4.60;99.90;;;;;;5093599;28;20510;-64
2023/05/18 00:46:13;;;;;;;0.50;0.35;;;4.60;99.90;;;;;;5093931;28;20040;-64
2023/05/18 00:48:39;;;;;;;0.68;0.40;;;4.60;99.90;;;;;;5111135;28;20052;-65
2023/05/18 00:51:05;;;;;;;0.95;0.43;;;4.60;99.90;;;;;;5111706;28;20052;-64
2023/05/18 00:53:31;;;;;;;0.90;0.60;;;4.60;99.90;;;;;;5093704;28;20139;-64
2023/05/18 00:55:58;;;;;;;0.75;0.47;;;4.60;99.90;;;;;;5093288;28;20050;-65
2023/05/18 00:58:25;;;;;;;1.08;0.45;;;4.50;99.90;;;;;;5111587;28;20492;-65
2023/05/18 01:00:52;;;;;;;2.80;0.50;;;4.50;99.90;;;;;;5075847;28;20491;-65
2023/05/18 01:03:20;;;;;;;0.73;0.35;;;4.40;99.90;;;;;;5075377;28;20495;-65
2023/05/18 01:05:54;;;;;;;1.80;0.77;;;4.40;99.90;;;;;;5076362;28;20488;-65
2023/05/18 01:08:24;;;;;;;1.13;0.70;;;4.40;99.90;;;;;;5111105;28;20114;-64
2023/05/18 01:11:02;;;;;;;0.38;0.30;;;4.30;99.90;;;;;;5111800;28;20104;-64
2023/05/18 01:13:54;;;;;;;1.48;0.70;;;4.30;99.90;;;;;;5093356;28;20047;-65
2023/05/18 01:16:26;;;;;;;0.43;0.40;;;4.40;99.90;;;;;;5092368;28;20562;-65
2023/05/18 01:19:49;;;;;;;0.80;0.70;;;4.30;99.90;;;;;;5093028;28;20522;-65
2023/05/18 01:25:30;;;;;;;0.77;0.32;;;4.30;99.90;;;;;;5008191;28;20125;-64
2023/05/18 01:28:05;;;;;;;1.20;0.83;;;4.30;99.90;;;;;;4991907;28;20053;-64
2023/05/18 01:30:33;;;;;;;0.57;0.40;;;4.20;99.90;;;;;;4991221;28;20077;-64
2023/05/18 01:32:59;;;;;;;1.70;0.45;;;4.20;99.90;;;;;;4991673;28;20085;-64
2023/05/18 01:35:24;;;;;;;0.47;0.40;;;4.10;99.90;;;;;;4991842;28;20077;-64
2023/05/18 01:37:50;;;;;;;1.00;0.75;;;4.10;99.90;;;;;;5007303;28;20042;-64
2023/05/18 01:40:16;;;;;;;1.33;0.50;;;4.00;99.90;;;;;;5008161;28;20133;-64
2023/05/18 01:42:48;;;;;;;0.80;0.50;;;4.00;99.90;;;;;;5007647;28;20042;-64
2023/05/18 01:45:20;;;;;;;0.57;0.50;;;4.00;99.90;;;;;;5007905;28;20050;-64
2023/05/18 01:47:48;;;;;;;0.40;0.35;;;3.90;99.90;;;;;;4991689;28;20046;-64
2023/05/18 01:50:21;;;;;;;0.60;0.50;;;3.90;99.90;;;;;;4990817;28;20054;-64
2023/05/18 01:53:05;;;;;;;3.95;0.60;;;3.90;99.90;;;;;;5007841;28;20057;-64
2023/05/18 01:55:34;;;;;;;1.20;0.45;;;3.90;99.90;;;;;;4991489;28;20453;-65
2023/05/18 01:58:01;;;;;;;0.40;0.30;;;3.90;99.90;;;;;;5032529;28;20043;-65
2023/05/18 02:00:27;;;;;;;1.70;0.80;;;3.80;99.90;;;;;;5110305;28;20071;-65
2023/05/18 02:02:53;;;;;;;1.42;0.70;;;3.80;99.90;;;;;;5075376;28;20055;-65
2023/05/18 02:05:19;;;;;;;1.20;0.52;;;3.80;99.90;;;;;;5091359;28;20484;-65
2023/05/18 02:07:46;;;;;;;1.05;0.47;;;3.80;99.90;;;;;;5110478;28;20035;-66
2023/05/18 02:10:12;;;;;;;0.55;0.55;;;3.80;99.90;;;;;;5091964;28;20518;-66
2023/05/18 02:12:38;;;;;;;0.85;0.60;;;3.80;99.90;;;;;;5109982;28;20044;-66
2023/05/18 02:15:05;;;;;;;0.85;0.43;;;3.80;99.90;;;;;;5109939;28;20047;-66
2023/05/18 02:17:32;;;;;;;1.30;1.17;;;3.80;99.90;;;;;;5092009;28;20467;-65
2023/05/18 02:19:58;;;;;;;0.95;0.57;;;3.80;99.90;;;;;;5074985;28;20522;-65
2023/05/18 02:22:24;;;;;;;0.80;0.55;;;3.80;99.90;;;;;;5091749;28;20035;-66
2023/05/18 02:24:50;;;;;;;1.05;0.40;;;3.70;99.90;;;;;;5091317;28;20461;-66
2023/05/18 02:27:16;;;;;;;1.10;0.70;;;3.70;99.90;;;;;;5091619;28;20122;-66
2023/05/18 02:29:42;;;;;;;0.32;0.32;;;3.70;99.90;;;;;;5110127;28;20040;-66
2023/05/18 02:32:08;;;;;;;1.60;1.05;;;3.70;99.90;;;;;;5090882;28;20406;-66
2023/05/18 02:34:37;;;;;;;0.80;0.60;;;3.70;99.90;;;;;;5091764;28;20043;-66
2023/05/18 02:37:03;;;;;;;1.95;1.10;;;3.70;99.90;;;;;;5091621;28;20039;-66
2023/05/18 02:39:30;;;;;;;0.95;0.70;;;3.70;99.90;;;;;;5090780;28;20499;-66
2023/05/18 02:41:55;;;;;;;0.90;0.40;;;3.60;99.90;;;;;;5091342;28;20043;-66
2023/05/18 02:44:21;;;;;;;1.40;0.85;;;3.60;99.90;;;;;;5091490;28;20046;-66
2023/05/18 02:46:47;;;;;;;3.80;1.20;;;3.60;99.90;;;;;;5090981;28;20070;-66
2023/05/18 02:49:13;;;;;;;1.13;0.68;;;3.60;99.90;;;;;;5091306;28;20449;-66
2023/05/18 02:52:23;;;;;;;0.65;0.55;;;3.60;99.90;;;;;;5091793;28;20057;-66
2023/05/18 02:54:49;;;;;;;0.70;0.52;;;3.60;99.90;;;;;;5090512;28;20044;-66
2023/05/18 02:57:15;;;;;;;0.65;0.55;;;3.60;99.90;;;;;;5074517;28;20047;-66
2023/05/18 02:59:41;;;;;;;1.48;0.55;;;3.50;99.90;;;;;;5108998;28;20040;-66
2023/05/18 03:02:06;;;;;;;4.38;0.85;;;3.60;99.90;;;;;;5074496;28;20039;-66
2023/05/18 03:04:32;;;;;;;0.68;0.52;;;3.50;99.90;;;;;;5091251;28;20035;-65
2023/05/18 03:07:01;;;;;;;1.08;0.73;;;3.60;99.90;;;;;;5073793;28;20419;-65
2023/05/18 03:09:28;;;;;;;1.25;0.50;;;3.50;99.90;;;;;;5090988;28;20048;-65
2023/05/18 03:11:53;;;;;;;1.02;0.70;;;3.60;99.90;;;;;;5090977;28;20050;-65
2023/05/18 03:14:19;;;;;;;1.02;0.68;;;3.60;99.90;;;;;;5108904;28;20035;-65
2023/05/18 03:16:45;;;;;;;1.52;0.70;;;3.60;99.90;;;;;;5091069;28;20035;-65
2023/05/18 03:19:13;;;;;;;1.58;0.73;;;3.60;99.90;;;;;;5109402;28;20084;-65
2023/05/18 03:21:38;;;;;;;4.82;0.52;;;3.70;99.90;;;;;;5108806;28;20063;-65
2023/05/18 03:24:05;;;;;;;0.80;0.60;;;3.70;99.90;;;;;;5109172;28;20526;-65
2023/05/18 03:26:30;;;;;;;1.10;0.75;;;3.60;99.90;;;;;;5077459;28;20391;-65
2023/05/18 03:28:57;;;;;;;2.03;0.80;;;3.60;99.90;;;;;;5094672;28;20050;-65
2023/05/18 03:31:24;;;;;;;1.00;0.80;;;3.60;99.90;;;;;;5094995;28;20126;-65
2023/05/18 03:33:50;;;;;;;1.02;0.65;;;3.60;99.90;;;;;;5095277;28;20404;-65
2023/05/18 03:36:15;;;;;;;3.42;0.47;;;3.60;99.90;;;;;;5112490;28;20036;-65
2023/05/18 03:38:45;;;;;;;0.60;0.40;;;3.60;99.90;;;;;;5094839;28;20036;-65
2023/05/18 03:41:11;;;;;;;1.13;0.85;;;3.60;99.90;;;;;;5094839;28;20039;-65
2023/05/18 03:43:37;;;;;;;1.02;0.60;;;3.60;99.90;;;;;;5077292;28;20128;-65
2023/05/18 03:46:03;;;;;;;3.08;1.25;;;3.50;99.90;;;;;;5094944;28;20083;-65
2023/05/18 03:48:29;;;;;;;1.75;0.85;;;3.50;99.90;;;;;;5113254;28;20493;-65
2023/05/18 03:50:55;;;;;;;0.93;0.50;;;3.50;99.90;;;;;;5077795;28;20438;-65
2023/05/18 03:53:21;;;;;;;2.95;0.98;;;3.50;99.90;;;;;;5094693;28;20040;-65
2023/05/18 03:55:50;;;;;;;1.02;0.75;;;3.50;99.90;;;;;;5077120;28;20043;-65
2023/05/18 03:58:18;;;;;;;2.42;0.98;;;3.50;99.90;;;;;;5094972;28;20040;-65
2023/05/18 04:00:46;;;;;;;1.65;1.13;;;3.50;99.90;;;;;;5094488;28;20050;-65
2023/05/18 04:03:13;;;;;;;0.82;0.63;;;3.50;99.90;;;;;;5076836;28;20362;-65
2023/05/18 04:05:42;;;;;;;1.88;0.70;;;3.50;99.90;;;;;;5094342;28;20040;-65
2023/05/18 04:08:09;;;;;;;0.93;0.55;;;3.60;99.90;;;;;;5094370;28;20047;-65
2023/05/18 04:10:35;;;;;;;3.75;1.15;;;3.60;99.90;;;;;;5093930;28;20040;-65
2023/05/18 04:13:01;;;;;;;1.63;0.88;;;3.60;99.90;;;;;;5094455;28;20039;-65
2023/05/18 04:15:27;;;;;;;7.07;1.23;;;3.70;99.90;;;;;;5112317;28;20472;-66
2023/05/18 04:17:52;;;;;;;1.67;0.82;;;3.80;99.90;;;;;;5093798;28;20043;-66
2023/05/18 04:20:19;;;;;;;2.55;0.70;;;3.80;99.90;;;;;;5094243;28;20506;-66
2023/05/18 04:22:46;;;;;;;1.20;0.60;;;3.90;99.90;;;;;;5112674;28;20123;-65
2023/05/18 04:25:13;;;;;;;0.90;0.55;;;4.00;99.90;;;;;;5111956;28;20093;-65
2023/05/18 04:27:41;;;;;;;4.70;0.95;;;4.10;99.90;;;;;;5094220;28;20142;-65
2023/05/18 04:30:09;;;;;;;2.15;1.02;;;4.20;99.90;;;;;;5094020;28;20071;-65
2023/05/18 04:32:35;;;;;;;5.07;0.65;;;4.20;99.90;;;;;;5076403;28;20092;-66
2023/05/18 04:35:05;;;;;;;0.75;0.60;;;4.30;99.90;;;;;;5112214;28;20035;-65
2023/05/18 04:37:32;;;;;;;1.20;0.63;;;4.30;99.90;;;;;;5092468;28;20047;-65
2023/05/18 04:40:01;;;;;;;1.25;0.57;;;4.40;99.90;;;;;;5112241;28;20166;-65
2023/05/18 04:42:30;;;;;;;1.40;0.75;;;4.60;99.90;;;;;;5093846;28;20043;-65
2023/05/18 04:44:56;;;;;;;0.47;0.47;;;4.70;99.90;;;;;;5093029;28;20049;-66
2023/05/18 04:47:22;;;;;;;2.80;1.27;;;4.80;99.90;;;;;;5093795;28;20039;-66
2023/05/18 04:49:51;;;;;;;0.88;0.65;;;4.90;99.90;;;;;;5093517;28;20108;-66
2023/05/18 04:52:18;;;;;;;2.60;1.30;;;5.00;99.90;;;;;;5093177;28;20062;-66
2023/05/18 04:54:44;;;;;;;1.65;0.80;;;5.10;99.90;;;;;;5076657;28;20042;-66
2023/05/18 04:57:10;;;;;;;0.98;0.73;;;5.30;99.90;;;;;;5093698;28;20031;-66
2023/05/18 04:59:36;;;;;;;2.25;0.80;;;5.40;99.90;;;;;;5092818;28;20046;-66
2023/05/18 05:02:02;;;;;;;1.40;0.75;;;5.50;99.90;;;;;;5093689;28;20035;-66
2023/05/18 05:04:29;;;;;;;3.20;1.92;;;5.60;99.90;;;;;;5093604;28;20027;-66
2023/05/18 05:06:55;;;;;;;1.98;0.60;;;5.60;99.90;;;;;;5092514;28;20043;-66
2023/05/18 05:09:20;;;;;;;1.92;0.90;;;5.60;99.90;;;;;;5093470;28;20235;-66
2023/05/18 05:11:46;;;;;;;1.88;0.90;;;5.70;99.90;;;;;;5093004;28;20040;-66
2023/05/18 05:14:12;;;;;;;3.00;0.80;;;5.80;99.90;;;;;;5092466;28;20039;-66
2023/05/18 05:16:38;;;;;;;1.10;0.73;;;5.90;99.90;;;;;;5076086;28;20044;-66
2023/05/18 05:19:04;;;;;;;1.73;0.88;;;6.00;99.90;;;;;;5092861;28;20046;-66
2023/05/18 05:21:31;;;;;;;2.95;1.20;;;6.20;99.90;;;;;;5092354;28;20050;-66
2023/05/18 05:23:57;;;;;;;3.08;1.00;;;6.30;99.90;;;;;;5093192;28;20040;-66
2023/05/18 05:26:22;;;;;;;1.38;1.05;;;6.50;99.90;;;;;;5093017;28;20289;-66
2023/05/18 05:28:48;;;;;;;1.85;1.30;;;6.70;99.90;;;;;;5092586;28;20043;-66
2023/05/18 05:31:14;;;;;;;0.98;0.70;;;6.80;99.90;;;;;;5092914;28;20521;-66
2023/05/18 05:33:40;;;;;;;1.58;0.95;;;6.90;99.90;;;;;;5092301;28;20126;-67
2023/05/18 05:36:07;;;;;;;1.00;0.60;;;7.10;99.90;;;;;;5110794;28;20071;-66
2023/05/18 05:38:33;;;;;;;4.93;0.70;;;7.20;99.90;;;;;;5110718;28;20495;-66
2023/05/18 05:40:59;;;;;;;0.85;0.70;;;7.30;99.90;;;;;;5110375;28;20047;-66
2023/05/18 05:43:25;;;;;;;1.23;0.75;;;7.50;99.90;;;;;;5110645;28;20039;-66
2023/05/18 05:45:51;;;;;;;2.20;1.10;;;7.60;99.90;;;;;;5075397;28;20159;-66
2023/05/18 05:48:17;;;;;;;3.03;1.05;;;7.70;99.90;;;;;;5091361;28;20039;-67
2023/05/18 05:50:42;;;;;;;1.35;0.65;;;7.80;99.90;;;;;;5092295;28;20117;-66
2023/05/18 05:53:08;;;;;;;2.00;1.02;;;7.90;99.90;;;;;;5110730;28;20043;-66
2023/05/18 05:55:40;;;;;;;5.65;0.82;;;8.00;99.90;;;;;;5091605;28;20040;-66
2023/05/18 05:58:09;;;;;;;0.85;0.60;;;8.10;99.90;;;;;;5111062;28;20032;-66
2023/05/18 06:00:35;;;;;;;0.90;0.70;;;8.10;99.90;;;;;;5092207;28;20078;-66
2023/05/18 06:03:01;;;;;;;1.48;0.60;;;8.20;99.90;;;;;;5091739;28;20074;-65
2023/05/18 06:05:27;;;;;;;1.13;0.80;;;8.30;99.90;;;;;;5093483;28;20047;-67
2023/05/18 06:07:54;;;;;;;1.38;0.80;;;8.30;99.90;;;;;;5110307;28;20395;-66
2023/05/18 06:10:20;;;;;;;1.52;0.77;;;8.40;99.90;;;;;;5109814;28;20446;-66
2023/05/18 06:12:46;;;;;;;2.25;0.98;;;8.50;99.90;;;;;;5110448;28;20027;-66
2023/05/18 06:15:11;;;;;;;1.23;0.65;;;8.50;99.90;;;;;;5109967;28;20484;-65
2023/05/18 06:17:38;;;;;;;1.45;0.80;;;8.60;99.90;;;;;;5091228;28;20083;-65
2023/05/18 06:20:07;;;;;;;2.13;1.02;;;8.60;99.90;;;;;;5092036;28;20039;-66
2023/05/18 06:22:33;;;;;;;2.72;0.60;;;8.70;99.90;;;;;;5091537;28;20186;-66
2023/05/18 06:24:59;;;;;;;1.23;0.63;;;8.80;99.90;;;;;;5109962;28;20118;-66
2023/05/18 06:27:25;;;;;;;1.83;0.82;;;8.90;99.90;;;;;;5109952;28;20118;-66
2023/05/18 06:29:51;;;;;;;1.75;0.90;;;8.90;99.90;;;;;;5091150;28;20074;-66
2023/05/18 06:32:17;;;;;;;1.80;0.85;;;9.00;99.90;;;;;;5110276;28;20053;-66
2023/05/18 06:34:46;;;;;;;3.08;1.15;;;9.10;99.90;;;;;;5091626;28;20108;-66
2023/05/18 06:37:12;;;;;;;2.63;0.93;;;9.20;99.90;;;;;;5091005;28;20513;-65
2023/05/18 06:39:39;;;;;;;1.45;0.68;;;9.30;99.90;;;;;;5074386;28;20126;-65
2023/05/18 06:42:05;;;;;;;1.55;1.40;;;9.40;99.90;;;;;;5111025;28;20067;-65
2023/05/18 06:44:31;;;;;;;3.20;1.67;;;9.40;99.90;;;;;;5092079;28;20097;-66
2023/05/18 06:46:56;;;;;;;2.00;1.20;;;9.40;99.90;;;;;;5110036;28;20575;-65
2023/05/18 06:49:22;;;;;;;2.25;1.23;;;9.50;99.90;;;;;;5074409;28;20114;-65
2023/05/18 06:51:48;;;;;;;2.60;1.10;;;9.50;99.90;;;;;;5090780;28;20055;-65
2023/05/18 06:54:14;;;;;;;0.85;0.60;;;9.60;99.90;;;;;;5109539;28;20055;-65
2023/05/18 06:56:40;;;;;;;1.45;0.82;;;9.70;99.90;;;;;;5090139;28;20046;-65
2023/05/18 06:59:06;;;;;;;3.55;1.02;;;9.70;99.90;;;;;;5074000;28;20044;-66
2023/05/18 07:01:32;;;;;;;1.23;0.85;;;9.80;99.90;;;;;;5074072;28;20088;-66
2023/05/18 07:03:58;;;;;;;1.77;0.88;;;9.80;99.90;;;;;;5091329;28;20039;-66
2023/05/18 07:06:24;;;;;;;3.05;0.90;;;9.90;99.90;;;;;;5090833;28;20040;-65
2023/05/18 07:08:50;;;;;;;1.05;0.63;;;10.00;99.90;;;;;;5091157;28;20050;-65
2023/05/18 07:11:16;;;;;;;1.83;0.85;;;10.00;99.90;;;;;;5091324;28;20039;-65
2023/05/18 07:13:41;;;;;;;0.93;0.60;;;10.20;99.90;;;;;;5108791;28;20122;-66
2023/05/18 07:16:07;;;;;;;1.33;0.90;;;10.30;99.90;;;;;;5074184;28;20040;-65
2023/05/18 07:18:33;;;;;;;1.65;0.80;;;10.40;99.90;;;;;;5108723;28;20124;-65
2023/05/18 07:20:59;;;;;;;0.50;0.50;;;10.50;99.90;;;;;;5109521;28;20032;-65
2023/05/18 07:23:25;;;;;;;0.45;0.40;;;10.50;99.90;;;;;;5091344;28;20201;-66
2023/05/18 07:25:51;;;;;;;1.17;0.63;;;10.60;99.90;;;;;;5090287;28;20092;-65
2023/05/18 07:28:16;;;;;;;0.85;0.57;;;10.70;99.90;;;;;;5090729;28;20050;-66
2023/05/18 07:30:42;;;;;;;2.65;0.50;;;10.80;99.90;;;;;;5090909;28;20047;-65
2023/05/18 07:33:08;;;;;;;1.55;0.80;;;10.90;99.90;;;;;;5061545;28;20047;-66
2023/05/18 07:35:35;;;;;;;1.23;0.93;;;11.00;99.90;;;;;;5071386;28;20051;-65
2023/05/18 07:38:00;;;;;;;0.77;0.70;;;11.00;99.90;;;;;;5055746;28;20082;-65
2023/05/18 07:40:26;;;;;;;1.77;1.08;;;11.00;99.90;;;;;;5088700;28;20140;-65
2023/05/18 07:42:52;;;;;;;1.20;0.70;;;11.10;99.90;;;;;;5088942;28;20036;-65
2023/05/18 07:45:18;;;;;;;1.02;0.57;;;11.30;99.90;;;;;;5069267;28;20075;-65
2023/05/18 07:47:44;;;;;;;2.15;0.82;;;11.30;99.90;;;;;;5069042;28;20515;-66
2023/05/18 07:50:10;;;;;;;3.92;0.95;;;11.30;99.90;;;;;;5069806;28;20048;-65
2023/05/18 07:52:36;;;;;;;1.67;0.80;;;11.40;99.90;;;;;;5069354;28;20113;-65
2023/05/18 07:55:02;;;;;;;1.60;0.85;;;11.40;99.90;;;;;;5087561;28;20491;-64
2023/05/18 07:57:29;;;;;;;2.85;1.00;;;11.50;99.90;;;;;;5070358;28;20134;-65
2023/05/18 07:59:55;;;;;;;2.47;0.90;;;11.70;99.90;;;;;;5070040;28;20044;-65
2023/05/18 08:02:21;;;;;;;2.47;1.13;;;11.90;99.90;;;;;;5052754;28;20036;-64
2023/05/18 08:04:47;;;;;;;2.53;0.93;;;11.90;99.90;;;;;;5070366;28;20042;-65
2023/05/18 08:07:13;;;;;;;1.17;0.60;;;11.90;99.90;;;;;;5088187;28;20556;-65
2023/05/18 08:09:39;;;;;;;4.32;1.10;;;11.90;99.90;;;;;;5069672;28;20123;-64
2023/05/18 08:12:05;;;;;;;2.83;1.50;;;11.90;99.90;;;;;;5090855;28;20119;-65
2023/05/18 08:14:31;;;;;;;2.80;1.05;;;11.90;99.90;;;;;;5092398;28;20040;-67
2023/05/18 08:16:57;;;;;;;1.80;1.00;;;11.90;99.90;;;;;;5073550;28;20444;-64
2023/05/18 08:19:23;;;;;;;1.23;0.80;;;12.00;99.90;;;;;;5074116;28;20048;-65
2023/05/18 08:21:49;;;;;;;1.15;0.70;;;12.00;99.90;;;;;;5091194;28;20036;-65
2023/05/18 08:24:15;;;;;;;0.80;0.40;;;12.20;99.90;;;;;;5092156;28;20093;-65
2023/05/18 08:26:41;;;;;;;3.08;0.90;;;12.30;99.90;;;;;;5073718;28;20467;-65
2023/05/18 08:29:09;;;;;;;1.63;0.90;;;12.40;99.90;;;;;;5073267;28;20134;-65
2023/05/18 08:31:40;;;;;;;0.63;0.47;;;12.40;99.90;;;;;;5073592;28;20044;-65
2023/05/18 08:34:07;;;;;;;3.95;0.82;;;12.50;99.90;;;;;;5091979;28;20085;-65
2023/05/18 08:36:34;;;;;;;1.95;0.77;;;12.60;99.90;;;;;;5073222;28;20040;-65
2023/05/18 08:39:04;;;;;;;1.30;0.80;;;12.60;99.90;;;;;;5091945;28;20040;-65
2023/05/18 08:41:37;;;;;;;1.02;0.70;;;12.60;99.90;;;;;;5057250;28;20487;-65
2023/05/18 08:44:08;;;;;;;0.95;0.63;;;12.50;99.90;;;;;;5091397;28;20495;-66
2023/05/18 08:46:49;;;;;;;2.70;0.90;;;12.60;99.90;;;;;;5091877;28;20044;-65
2023/05/18 08:49:17;;;;;;;1.90;0.60;;;12.60;99.90;;;;;;5073299;28;20083;-64
2023/05/18 08:51:46;;;;;;;0.68;0.57;;;12.70;99.90;;;;;;5091109;28;20048;-65
2023/05/18 08:54:19;;;;;;;0.77;0.60;;;12.80;99.90;;;;;;5056867;28;20140;-65
2023/05/18 08:56:46;;;;;;;1.65;0.85;;;13.00;99.90;;;;;;5072517;28;20036;-65
2023/05/18 08:59:15;;;;;;;1.35;0.70;;;13.40;99.90;;;;;;5091593;28;20039;-65
2023/05/18 09:01:41;;;;;;;1.15;0.40;;;13.80;99.90;;;;;;5072978;28;20553;-65
2023/05/18 09:04:09;;;;;;;1.23;0.63;;;14.10;99.90;;;;;;5072419;28;20040;-64
2023/05/18 09:06:35;;;;;;;1.42;0.63;;;14.40;99.90;;;;;;5091321;28;20040;-65
2023/05/18 09:09:05;;;;;;;2.28;1.20;;;14.70;99.90;;;;;;5073163;28;20043;-65
2023/05/18 09:11:33;;;;;;;2.58;1.00;;;14.90;99.90;;;;;;5090306;28;20040;-65
2023/05/18 09:13:59;;;;;;;2.70;0.57;;;15.00;99.90;;;;;;5091119;28;20047;-64
2023/05/18 09:16:25;;;;;;;0.90;0.40;;;15.00;99.90;;;;;;5091185;28;20094;-65
2023/05/18 09:18:52;;;;;;;2.78;0.60;;;15.00;99.90;;;;;;5090282;28;20500;-64
2023/05/18 09:21:18;;;;;;;1.08;0.35;;;15.00;99.90;;;;;;5072881;28;20478;-65
2023/05/18 09:23:43;;;;;;;1.00;0.55;;;15.00;99.90;;;;;;5055552;28;20126;-65
2023/05/18 09:26:11;;;;;;;4.78;1.17;;;15.10;99.90;;;;;;5090147;28;20492;-65
2023/05/18 09:28:39;;;;;;;1.58;0.70;;;15.20;99.90;;;;;;5072737;28;20070;-65
2023/05/18 09:31:07;;;;;;;1.10;0.75;;;15.30;99.90;;;;;;5090834;28;20101;-65
2023/05/18 09:33:38;;;;;;;0.85;0.52;;;15.60;99.90;;;;;;5072077;28;20535;-66
2023/05/18 09:36:07;;;;;;;1.17;0.60;;;15.70;99.90;;;;;;5072264;28;20051;-65
2023/05/18 09:38:38;;;;;;;0.63;0.25;;;15.70;99.90;;;;;;5072062;28;20408;-64
2023/05/18 09:41:09;;;;;;;2.42;0.55;;;15.80;99.90;;;;;;5055902;28;20400;-65
2023/05/18 09:43:35;;;;;;;2.08;0.52;;;15.70;99.90;;;;;;5072372;28;20119;-65
2023/05/18 09:46:08;;;;;;;1.45;0.63;;;15.60;99.90;;;;;;5072055;28;20124;-64
2023/05/18 09:48:36;;;;;;;1.58;0.63;;;15.70;99.90;;;;;;5090307;28;20400;-65
2023/05/18 09:51:05;;;;;;;3.92;0.68;;;15.90;99.90;;;;;;5100825;28;20175;-65
2023/05/18 09:53:34;;;;;;;1.40;0.77;;;16.10;99.90;;;;;;5075941;28;20040;-65
2023/05/18 09:56:05;;;;;;;1.88;0.65;;;16.20;99.90;;;;;;5111525;28;20043;-64
2023/05/18 09:58:35;;;;;;;1.15;0.70;;;16.40;99.90;;;;;;5092223;28;20043;-65
2023/05/18 10:01:01;;;;;;;;;;;16.70;99.90;;;;;;5092301;28;20116;-65
2023/05/18 10:03:32;;;;;;;1.65;0.40;;;17.00;99.90;;;;;;5092340;28;19915;-65
2023/05/18 10:06:05;;;;;;;2.75;0.60;;;17.10;99.90;;;;;;5110576;28;20073;-66
2023/05/18 10:08:32;;;;;;;1.02;0.43;;;17.30;99.90;;;;;;5074780;28;20039;-66
2023/05/18 10:10:58;;;;;;;1.52;0.50;;;17.40;99.90;;;;;;5110544;28;20043;-65
2023/05/18 10:13:27;;;;;;;1.00;0.40;;;17.50;99.90;;;;;;5092466;28;20050;-65
2023/05/18 10:15:56;;;;;;;7.40;1.02;;;17.40;99.90;;;;;;5109817;28;20039;-66
2023/05/18 10:18:29;;;;;;;0.80;0.45;;;17.40;99.70;;;;;;5075195;28;20046;-66
2023/05/18 10:20:57;;;;;;;1.75;0.50;;;17.40;99.90;;;;;;5091236;28;20050;-66
2023/05/18 10:23:25;;;;;;;1.95;0.60;;;17.20;99.30;;;;;;5092051;28;20031;-66
2023/05/18 10:25:52;;;;;;;3.40;0.68;;;17.00;99.40;;;;;;5092118;28;20059;-64
2023/05/18 10:28:27;;;;;;;0.63;0.40;;;17.00;96.60;;;;;;5091102;28;20050;-66
2023/05/18 10:30:55;;;;;;;0.35;0.28;;;17.20;99.40;;;;;;5109888;28;20564;-65
2023/05/18 10:33:30;;;;;;;0.95;0.45;;;17.20;99.90;;;;;;5109748;28;20039;-65
2023/05/18 10:35:57;;;;;;;1.35;0.55;;;17.20;96.80;;;;;;5090965;28;20513;-66
2023/05/18 10:38:27;;;;;;;1.35;0.80;;;17.00;97.40;;;;;;5091460;28;20502;-65
2023/05/18 10:40:55;;;;;;;0.40;0.30;;;17.00;99.00;;;;;;5109674;28;20118;-65
2023/05/18 10:43:26;;;;;;;0.57;0.20;;;17.00;99.50;;;;;;5090728;28;20533;-64
2023/05/18 10:45:58;;;;;;;4.32;0.40;;;16.90;99.90;;;;;;5109863;28;20043;-65
2023/05/18 10:48:25;;;;;;;1.13;0.43;;;16.90;98.50;;;;;;5074740;28;20056;-65
2023/05/18 10:50:52;;;;;;;1.67;0.60;;;16.90;98.00;;;;;;5090784;28;20051;-63
2023/05/18 10:53:20;;;;;;;1.85;0.45;;;16.90;95.90;;;;;;5091295;28;20514;-65
2023/05/18 10:55:47;;;;;;;0.82;0.35;;;16.70;97.50;;;;;;5073801;28;20039;-64
2023/05/18 10:58:15;;;;;;;0.82;0.40;;;16.70;98.90;;;;;;5109589;28;20036;-64
2023/05/18 11:00:46;;;;;;;1.17;0.40;;;16.70;93.90;;;;;;5091559;28;20043;-65
2023/05/18 11:03:14;;;;;;;1.35;0.52;;;16.50;97.60;;;;;;5090506;28;20039;-64
2023/05/18 11:05:41;;;;;;;1.48;0.55;;;16.60;98.70;;;;;;5091066;28;20075;-65
2023/05/18 11:08:07;;;;;;;2.28;0.40;;;16.60;97.50;;;;;;5074179;28;20043;-65
2023/05/18 11:10:41;;;;;;;1.05;0.55;;;16.60;97.20;;;;;;5090550;28;20039;-64
2023/05/18 11:13:07;;;;;;;0.93;0.50;;;16.50;96.60;;;;;;5109429;28;20047;-63
2023/05/18 11:15:52;;;;;;;1.58;0.70;;;16.40;97.30;;;;;;5091102;28;20031;-64
2023/05/18 11:18:18;;;;;;;1.13;0.60;;;16.20;95.50;;;;;;5090256;28;20052;-64
2023/05/18 11:20:47;;;;;;;0.55;0.30;;;16.00;96.30;;;;;;5091328;28;20035;-64
2023/05/18 11:23:19;;;;;;;;;;;15.90;96.40;;;;;;5091818;28;20130;-64
2023/05/18 11:25:48;;;;;;;1.20;0.60;;;15.80;95.60;;;;;;5073533;28;19915;-64
2023/05/18 11:28:14;;;;;;;3.83;0.60;;;15.70;94.50;;;;;;5109141;28;20531;-65
2023/05/18 11:30:40;;;;;;;3.22;0.73;;;15.70;96.20;;;;;;5090653;28;20422;-65
2023/05/18 11:33:10;;;;;;;0.30;0.25;;;15.70;97.30;;;;;;5091161;28;20118;-64
2023/05/18 11:36:06;;;;;;;1.48;0.55;;;15.70;96.80;;;;;;5109220;28;20407;-64
2023/05/18 11:38:54;;;;;;;1.00;0.50;;;15.70;96.10;;;;;;5108590;28;20453;-65
2023/05/18 11:41:28;;;;;;;1.00;0.60;;;15.70;96.20;;;;;;5090728;28;20082;-64
2023/05/18 11:44:15;;;;;;;0.77;0.40;;;15.80;97.50;;;;;;5090623;28;20273;-64
2023/05/18 11:47:02;;;;;;;0.95;0.40;;;15.70;97.80;;;;;;5091906;28;20046;-63
2023/05/18 11:49:31;;;;;;;1.65;0.35;;;15.70;97.00;;;;;;5112875;28;20191;-64
2023/05/18 11:52:14;;;;;;;0.83;0.47;;;15.80;97.60;;;;;;5077613;28;20381;-65
2023/05/18 11:54:43;;;;;;;0.77;0.45;;;15.70;98.10;;;;;;5095082;28;20442;-64
2023/05/18 11:57:10;;;;;;;1.25;0.70;;;15.80;97.80;;;;;;5094519;28;20364;-65
2023/05/18 11:59:41;;;;;;;0.73;0.32;;;15.90;97.80;;;;;;5093918;28;20044;-64
2023/05/18 12:02:11;;;;;;;5.55;0.70;;;16.00;98.10;;;;;;5078043;28;20388;-64
2023/05/18 12:04:58;;;;;;;1.58;0.70;;;16.20;97.90;;;;;;5094729;28;20043;-64
2023/05/18 12:07:27;;;;;;;1.17;0.50;;;16.40;98.00;;;;;;5093799;28;20557;-64
2023/05/18 12:10:00;;;;;;;1.02;0.50;;;16.60;96.40;;;;;;5094237;28;20127;-64
2023/05/18 12:12:27;;;;;;;4.68;0.95;;;16.80;97.10;;;;;;5094334;28;20126;-64
2023/05/18 12:14:57;;;;;;;0.90;0.50;;;17.00;97.60;;;;;;5093589;28;20040;-65
2023/05/18 12:17:43;;;;;;;0.75;0.30;;;17.10;97.70;;;;;;5094205;28;20395;-64
2023/05/18 12:20:11;;;;;;;0.50;0.30;;;17.20;98.30;;;;;;5076947;28;20047;-64
2023/05/18 12:22:38;;;;;;;1.48;0.80;;;17.40;98.80;;;;;;5112721;28;20421;-64
2023/05/18 12:25:05;;;;;;;1.98;0.70;;;17.60;98.80;;;;;;5094465;28;20391;-64
2023/05/18 12:27:40;;;;;;;0.95;0.55;;;17.60;97.70;;;;;;5112054;28;20061;-64
2023/05/18 12:30:37;;;;;;;1.85;0.50;;;17.70;97.90;;;;;;5077082;28;20282;-64
2023/05/18 12:33:03;;;;;;;1.05;0.50;;;17.70;96.70;;;;;;5094275;28;20118;-65
2023/05/18 12:35:29;;;;;;;2.28;0.60;;;17.80;97.10;;;;;;5111698;28;20479;-63
2023/05/18 12:37:59;;;;;;;2.10;0.50;;;17.80;97.50;;;;;;5094138;28;20101;-64
2023/05/18 12:40:25;;;;;;;2.15;0.60;;;17.80;96.30;;;;;;5111951;28;20488;-64
2023/05/18 12:42:55;;;;;;;1.27;0.65;;;17.90;97.60;;;;;;5093159;28;20035;-64
2023/05/18 12:45:31;;;;;;;0.82;0.43;;;18.10;97.90;;;;;;5093683;28;20035;-64
2023/05/18 12:48:08;;;;;;;2.58;0.47;;;18.10;96.20;;;;;;5093123;28;20169;-64
2023/05/18 12:50:35;;;;;;;1.55;0.57;;;18.20;97.10;;;;;;5093604;28;20480;-64
2023/05/18 12:53:01;;;;;;;3.30;0.60;;;18.30;97.40;;;;;;5093753;28;20035;-64
2023/05/18 12:55:29;;;;;;;2.33;0.52;;;18.30;97.40;;;;;;5111326;28;20038;-64
2023/05/18 12:58:17;;;;;;;1.60;0.68;;;18.10;95.20;;;;;;5092413;28;20123;-65
2023/05/18 13:00:45;;;;;;;1.17;0.55;;;17.90;96.70;;;;;;5111723;28;20039;-66
2023/05/18 13:03:13;;;;;;;2.30;0.75;;;17.80;96.70;;;;;;5092758;28;20040;-65